sensor_id;sensor_type;location;lat;lon;timestamp;temperature;humidity
38726;DHT22;24474;48.906;8.808;2022-07-10T00:00:32;18.70;99.90
38726;DHT22;24474;48.906;8.808;2022-07-10T00:02:58;18.70;99.90
38726;DHT22;24474;48.906;8.808;2022-07-10T00:05:25;18.70;99.90
38726;DHT22;24474;48.906;8.808;2022-07-10T00:07:51;18.70;99.90
38726;DHT22;24474;48.906;8.808;2022-07-10T00:10:19;18.70;99.90
38726;DHT22;24474;48.906;8.808;2022-07-10T00:12:46;18.60;99.90
38726;DHT22;24474;48.906;8.808;2022-07-10T00:15:12;18.60;99.90
38726;DHT22;24474;48.906;8.808;2022-07-10T00:17:38;18.50;99.90
38726;DHT22;24474;48.906;8.808;2022-07-10T00:20:05;18.50;99.90
38726;DHT22;24474;48.906;8.808;2022-07-10T00:22:33;18.50;99.90
38726;DHT22;24474;48.906;8.808;2022-07-10T00:25:04;18.50;99.90
38726;DHT22;24474;48.906;8.808;2022-07-10T00:27:30;18.50;99.90
38726;DHT22;24474;48.906;8.808;2022-07-10T00:29:56;18.50;99.90
38726;DHT22;24474;48.906;8.808;2022-07-10T00:32:22;18.40;99.90
38726;DHT22;24474;48.906;8.808;2022-07-10T00:34:48;18.40;99.90
38726;DHT22;24474;48.906;8.808;2022-07-10T00:37:14;18.30;99.90
38726;DHT22;24474;48.906;8.808;2022-07-10T00:39:39;18.30;99.90
38726;DHT22;24474;48.906;8.808;2022-07-10T00:42:11;18.30;99.90
38726;DHT22;24474;48.906;8.808;2022-07-10T00:44:37;18.30;99.90
38726;DHT22;24474;48.906;8.808;2022-07-10T00:47:08;18.30;99.90
38726;DHT22;24474;48.906;8.808;2022-07-10T00:49:35;18.30;99.90
38726;DHT22;24474;48.906;8.808;2022-07-10T00:52:05;18.30;99.90
38726;DHT22;24474;48.906;8.808;2022-07-10T00:54:36;18.20;99.90
38726;DHT22;24474;48.906;8.808;2022-07-10T00:57:04;18.20;99.90
38726;DHT22;24474;48.906;8.808;2022-07-10T00:59:35;18.20;99.90
38726;DHT22;24474;48.906;8.808;2022-07-10T01:02:04;18.20;99.90
38726;DHT22;24474;48.906;8.808;2022-07-10T01:04:31;18.10;99.90
38726;DHT22;24474;48.906;8.808;2022-07-10T01:06:57;18.10;99.90
38726;DHT22;24474;48.906;8.808;2022-07-10T01:09:23;18.00;99.90
38726;DHT22;24474;48.906;8.808;2022-07-10T01:11:49;18.00;99.90
38726;DHT22;24474;48.906;8.808;2022-07-10T01:14:15;18.00;99.90
38726;DHT22;24474;48.906;8.808;2022-07-10T01:16:41;18.00;99.90
38726;DHT22;24474;48.906;8.808;2022-07-10T01:19:07;18.00;99.90
38726;DHT22;24474;48.906;8.808;2022-07-10T01:21:34;18.00;99.90
38726;DHT22;24474;48.906;8.808;2022-07-10T01:24:05;18.00;99.90
38726;DHT22;24474;48.906;8.808;2022-07-10T01:26:32;18.00;99.90
38726;DHT22;24474;48.906;8.808;2022-07-10T01:28:58;18.00;99.90
38726;DHT22;24474;48.906;8.808;2022-07-10T01:31:25;17.90;99.90
38726;DHT22;24474;48.906;8.808;2022-07-10T01:33:52;18.00;99.90
38726;DHT22;24474;48.906;8.808;2022-07-10T01:36:18;18.00;99.90
38726;DHT22;24474;48.906;8.808;2022-07-10T01:38:44;18.00;99.90
38726;DHT22;24474;48.906;8.808;2022-07-10T01:41:10;17.90;99.90
38726;DHT22;24474;48.906;8.808;2022-07-10T01:43:36;17.90;99.90
38726;DHT22;24474;48.906;8.808;2022-07-10T01:46:05;17.90;99.90
38726;DHT22;24474;48.906;8.808;2022-07-10T01:48:31;17.90;99.90
38726;DHT22;24474;48.906;8.808;2022-07-10T01:50:57;17.90;99.90
38726;DHT22;24474;48.906;8.808;2022-07-10T01:53:22;17.80;99.90
38726;DHT22;24474;48.906;8.808;2022-07-10T01:55:48;17.80;99.90
38726;DHT22;24474;48.906;8.808;2022-07-10T01:58:14;17.80;99.90
38726;DHT22;24474;48.906;8.808;2022-07-10T02:00:40;17.80;99.90
38726;DHT22;24474;48.906;8.808;2022-07-10T02:03:05;17.80;99.90
38726;DHT22;24474;48.906;8.808;2022-07-10T02:05:49;17.80;99.90
38726;DHT22;24474;48.906;8.808;2022-07-10T02:08:15;17.80;99.90
38726;DHT22;24474;48.906;8.808;2022-07-10T02:10:41;17.70;99.90
38726;DHT22;24474;48.906;8.808;2022-07-10T02:13:07;17.70;99.90
38726;DHT22;24474;48.906;8.808;2022-07-10T02:15:32;17.60;99.90
38726;DHT22;24474;48.906;8.808;2022-07-10T02:17:58;17.60;99.90
38726;DHT22;24474;48.906;8.808;2022-07-10T02:20:24;17.60;99.90
38726;DHT22;24474;48.906;8.808;2022-07-10T02:22:50;17.50;99.90
38726;DHT22;24474;48.906;8.808;2022-07-10T02:25:15;17.50;99.90
38726;DHT22;24474;48.906;8.808;2022-07-10T02:27:41;17.50;99.90
38726;DHT22;24474;48.906;8.808;2022-07-10T02:30:07;17.40;99.90
38726;DHT22;24474;48.906;8.808;2022-07-10T02:32:32;17.40;99.90
38726;DHT22;24474;48.906;8.808;2022-07-10T02:34:58;17.30;99.90
38726;DHT22;24474;48.906;8.808;2022-07-10T02:37:24;17.30;99.90
38726;DHT22;24474;48.906;8.808;2022-07-10T02:39:50;17.30;99.90
38726;DHT22;24474;48.906;8.808;2022-07-10T02:42:16;17.20;99.90
38726;DHT22;24474;48.906;8.808;2022-07-10T02:44:41;17.20;99.90
38726;DHT22;24474;48.906;8.808;2022-07-10T02:47:07;17.20;99.90
38726;DHT22;24474;48.906;8.808;2022-07-10T02:49:33;17.10;99.90
38726;DHT22;24474;48.906;8.808;2022-07-10T02:51:58;17.10;99.90
38726;DHT22;24474;48.906;8.808;2022-07-10T02:54:24;17.10;99.90
38726;DHT22;24474;48.906;8.808;2022-07-10T02:56:50;17.10;99.90
38726;DHT22;24474;48.906;8.808;2022-07-10T02:59:16;17.00;99.90
38726;DHT22;24474;48.906;8.808;2022-07-10T03:01:43;16.90;99.90
38726;DHT22;24474;48.906;8.808;2022-07-10T03:04:09;16.80;99.90
38726;DHT22;24474;48.906;8.808;2022-07-10T03:06:34;16.90;99.90
38726;DHT22;24474;48.906;8.808;2022-07-10T03:09:00;16.80;99.90
38726;DHT22;24474;48.906;8.808;2022-07-10T03:11:26;16.80;99.90
38726;DHT22;24474;48.906;8.808;2022-07-10T03:13:51;16.70;99.90
38726;DHT22;24474;48.906;8.808;2022-07-10T03:16:17;16.70;99.90
38726;DHT22;24474;48.906;8.808;2022-07-10T03:18:43;16.60;99.90
38726;DHT22;24474;48.906;8.808;2022-07-10T03:21:08;16.60;99.90
38726;DHT22;24474;48.906;8.808;2022-07-10T03:23:34;16.60;99.90
38726;DHT22;24474;48.906;8.808;2022-07-10T03:25:59;16.70;99.90
38726;DHT22;24474;48.906;8.808;2022-07-10T03:28:25;16.70;99.90
38726;DHT22;24474;48.906;8.808;2022-07-10T03:30:51;16.60;99.90
38726;DHT22;24474;48.906;8.808;2022-07-10T03:33:16;16.70;99.90
38726;DHT22;24474;48.906;8.808;2022-07-10T03:35:42;16.60;99.90
38726;DHT22;24474;48.906;8.808;2022-07-10T03:38:08;16.60;99.90
38726;DHT22;24474;48.906;8.808;2022-07-10T03:40:33;16.60;99.90
38726;DHT22;24474;48.906;8.808;2022-07-10T03:42:59;16.60;99.90
38726;DHT22;24474;48.906;8.808;2022-07-10T03:45:25;16.50;99.90
38726;DHT22;24474;48.906;8.808;2022-07-10T03:47:50;16.50;99.90
38726;DHT22;24474;48.906;8.808;2022-07-10T03:50:16;16.50;99.90
38726;DHT22;24474;48.906;8.808;2022-07-10T03:52:42;16.50;99.90
38726;DHT22;24474;48.906;8.808;2022-07-10T03:55:09;16.40;99.90
38726;DHT22;24474;48.906;8.808;2022-07-10T03:57:35;16.40;99.90
38726;DHT22;24474;48.906;8.808;2022-07-10T04:00:21;16.40;99.90
38726;DHT22;24474;48.906;8.808;2022-07-10T04:02:57;16.40;99.90
38726;DHT22;24474;48.906;8.808;2022-07-10T04:05:23;16.40;99.90
38726;DHT22;24474;48.906;8.808;2022-07-10T04:07:49;16.40;99.90
38726;DHT22;24474;48.906;8.808;2022-07-10T04:10:15;16.40;99.90
38726;DHT22;24474;48.906;8.808;2022-07-10T04:12:42;16.40;99.90
38726;DHT22;24474;48.906;8.808;2022-07-10T04:15:08;16.40;99.90
38726;DHT22;24474;48.906;8.808;2022-07-10T04:17:33;16.30;99.90
38726;DHT22;24474;48.906;8.808;2022-07-10T04:19:59;16.30;99.90
38726;DHT22;24474;48.906;8.808;2022-07-10T04:22:26;16.30;99.90
38726;DHT22;24474;48.906;8.808;2022-07-10T04:24:52;16.20;99.90
38726;DHT22;24474;48.906;8.808;2022-07-10T04:27:18;16.20;99.90
38726;DHT22;24474;48.906;8.808;2022-07-10T04:29:44;16.20;99.90
38726;DHT22;24474;48.906;8.808;2022-07-10T04:32:09;16.10;99.90
38726;DHT22;24474;48.906;8.808;2022-07-10T04:34:35;16.20;99.90
38726;DHT22;24474;48.906;8.808;2022-07-10T04:37:01;16.10;99.90
38726;DHT22;24474;48.906;8.808;2022-07-10T04:39:26;16.10;99.90
38726;DHT22;24474;48.906;8.808;2022-07-10T04:41:52;16.10;99.90
38726;DHT22;24474;48.906;8.808;2022-07-10T04:44:18;16.10;99.90
38726;DHT22;24474;48.906;8.808;2022-07-10T04:46:44;16.00;99.90
38726;DHT22;24474;48.906;8.808;2022-07-10T04:49:10;16.00;99.90
38726;DHT22;24474;48.906;8.808;2022-07-10T04:51:35;16.00;99.90
38726;DHT22;24474;48.906;8.808;2022-07-10T04:54:01;15.90;99.90
38726;DHT22;24474;48.906;8.808;2022-07-10T04:56:27;15.90;99.90
38726;DHT22;24474;48.906;8.808;2022-07-10T04:58:52;15.90;99.90
38726;DHT22;24474;48.906;8.808;2022-07-10T05:01:18;16.00;99.90
38726;DHT22;24474;48.906;8.808;2022-07-10T05:03:44;16.00;99.90
38726;DHT22;24474;48.906;8.808;2022-07-10T05:06:10;16.00;99.90
38726;DHT22;24474;48.906;8.808;2022-07-10T05:08:36;16.00;99.90
38726;DHT22;24474;48.906;8.808;2022-07-10T05:11:01;15.90;99.90
38726;DHT22;24474;48.906;8.808;2022-07-10T05:13:27;16.00;99.90
38726;DHT22;24474;48.906;8.808;2022-07-10T05:15:53;16.00;99.90
38726;DHT22;24474;48.906;8.808;2022-07-10T05:18:18;16.10;99.90
38726;DHT22;24474;48.906;8.808;2022-07-10T05:20:44;16.10;99.90
38726;DHT22;24474;48.906;8.808;2022-07-10T05:23:11;16.20;99.90
38726;DHT22;24474;48.906;8.808;2022-07-10T05:25:37;16.10;99.90
38726;DHT22;24474;48.906;8.808;2022-07-10T05:28:04;16.10;99.90
38726;DHT22;24474;48.906;8.808;2022-07-10T05:30:32;16.20;99.90
38726;DHT22;24474;48.906;8.808;2022-07-10T05:32:58;16.30;99.90
38726;DHT22;24474;48.906;8.808;2022-07-10T05:35:25;16.40;99.90
38726;DHT22;24474;48.906;8.808;2022-07-10T05:37:51;16.40;99.90
38726;DHT22;24474;48.906;8.808;2022-07-10T05:40:17;16.40;99.90
38726;DHT22;24474;48.906;8.808;2022-07-10T05:42:44;16.30;99.90
38726;DHT22;24474;48.906;8.808;2022-07-10T05:45:11;16.20;99.90
38726;DHT22;24474;48.906;8.808;2022-07-10T05:47:37;16.10;99.90
38726;DHT22;24474;48.906;8.808;2022-07-10T05:50:03;16.20;99.90
38726;DHT22;24474;48.906;8.808;2022-07-10T05:52:28;16.30;99.90
38726;DHT22;24474;48.906;8.808;2022-07-10T05:54:56;16.30;99.90
38726;DHT22;24474;48.906;8.808;2022-07-10T05:57:22;16.30;99.90
38726;DHT22;24474;48.906;8.808;2022-07-10T05:59:48;16.20;99.90
38726;DHT22;24474;48.906;8.808;2022-07-10T06:02:14;16.20;99.90
38726;DHT22;24474;48.906;8.808;2022-07-10T06:04:41;16.20;99.90
38726;DHT22;24474;48.906;8.808;2022-07-10T06:07:07;16.30;99.90
38726;DHT22;24474;48.906;8.808;2022-07-10T06:09:34;16.30;99.90
38726;DHT22;24474;48.906;8.808;2022-07-10T06:12:00;16.30;99.90
38726;DHT22;24474;48.906;8.808;2022-07-10T06:14:25;16.30;99.90
38726;DHT22;24474;48.906;8.808;2022-07-10T06:16:51;16.30;99.90
38726;DHT22;24474;48.906;8.808;2022-07-10T06:19:17;16.30;99.90
38726;DHT22;24474;48.906;8.808;2022-07-10T06:21:43;16.30;99.90
38726;DHT22;24474;48.906;8.808;2022-07-10T06:24:09;16.30;99.90
38726;DHT22;24474;48.906;8.808;2022-07-10T06:26:36;16.30;99.90
38726;DHT22;24474;48.906;8.808;2022-07-10T06:29:03;16.40;99.90
38726;DHT22;24474;48.906;8.808;2022-07-10T06:31:29;16.40;99.90
38726;DHT22;24474;48.906;8.808;2022-07-10T06:33:55;16.50;99.90
38726;DHT22;24474;48.906;8.808;2022-07-10T06:36:21;16.60;99.90
38726;DHT22;24474;48.906;8.808;2022-07-10T06:38:48;16.70;99.90
38726;DHT22;24474;48.906;8.808;2022-07-10T06:41:15;16.80;99.90
38726;DHT22;24474;48.906;8.808;2022-07-10T06:43:41;16.80;99.90
38726;DHT22;24474;48.906;8.808;2022-07-10T06:46:06;16.80;99.90
38726;DHT22;24474;48.906;8.808;2022-07-10T06:48:34;16.80;99.90
38726;DHT22;24474;48.906;8.808;2022-07-10T06:51:02;16.60;99.90
38726;DHT22;24474;48.906;8.808;2022-07-10T06:53:31;16.50;99.90
38726;DHT22;24474;48.906;8.808;2022-07-10T06:55:57;16.40;99.90
38726;DHT22;24474;48.906;8.808;2022-07-10T06:58:23;16.40;99.90
38726;DHT22;24474;48.906;8.808;2022-07-10T07:00:48;16.40;99.90
38726;DHT22;24474;48.906;8.808;2022-07-10T07:03:14;16.40;99.90
38726;DHT22;24474;48.906;8.808;2022-07-10T07:05:40;16.40;99.90
38726;DHT22;24474;48.906;8.808;2022-07-10T07:08:06;16.40;99.90
38726;DHT22;24474;48.906;8.808;2022-07-10T07:10:31;16.30;99.90
38726;DHT22;24474;48.906;8.808;2022-07-10T07:12:57;16.30;99.90
38726;DHT22;24474;48.906;8.808;2022-07-10T07:15:23;16.20;99.90
38726;DHT22;24474;48.906;8.808;2022-07-10T07:17:49;16.20;99.90
38726;DHT22;24474;48.906;8.808;2022-07-10T07:20:44;16.20;99.90
38726;DHT22;24474;48.906;8.808;2022-07-10T07:23:28;16.10;99.90
38726;DHT22;24474;48.906;8.808;2022-07-10T07:25:54;16.10;99.90
38726;DHT22;24474;48.906;8.808;2022-07-10T07:28:20;16.10;99.90
38726;DHT22;24474;48.906;8.808;2022-07-10T07:30:48;16.00;99.90
38726;DHT22;24474;48.906;8.808;2022-07-10T07:33:14;16.10;99.90
38726;DHT22;24474;48.906;8.808;2022-07-10T07:35:41;16.10;99.90
38726;DHT22;24474;48.906;8.808;2022-07-10T07:38:07;16.10;99.90
38726;DHT22;24474;48.906;8.808;2022-07-10T07:40:34;16.10;99.90
38726;DHT22;24474;48.906;8.808;2022-07-10T07:43:03;16.10;99.90
38726;DHT22;24474;48.906;8.808;2022-07-10T07:45:29;16.10;99.90
38726;DHT22;24474;48.906;8.808;2022-07-10T07:47:56;16.10;99.90
38726;DHT22;24474;48.906;8.808;2022-07-10T07:50:28;16.20;99.90
38726;DHT22;24474;48.906;8.808;2022-07-10T07:52:58;16.30;99.90
38726;DHT22;24474;48.906;8.808;2022-07-10T07:55:24;16.30;99.90
38726;DHT22;24474;48.906;8.808;2022-07-10T07:57:55;16.30;99.90
38726;DHT22;24474;48.906;8.808;2022-07-10T08:00:23;16.40;99.90
38726;DHT22;24474;48.906;8.808;2022-07-10T08:02:52;16.50;99.90
38726;DHT22;24474;48.906;8.808;2022-07-10T08:05:18;16.50;99.90
38726;DHT22;24474;48.906;8.808;2022-07-10T08:07:47;16.40;99.90
38726;DHT22;24474;48.906;8.808;2022-07-10T08:10:16;16.50;99.90
38726;DHT22;24474;48.906;8.808;2022-07-10T08:12:43;16.40;99.90
38726;DHT22;24474;48.906;8.808;2022-07-10T08:15:15;16.40;99.90
38726;DHT22;24474;48.906;8.808;2022-07-10T08:17:41;16.30;99.90
38726;DHT22;24474;48.906;8.808;2022-07-10T08:20:10;16.30;99.90
38726;DHT22;24474;48.906;8.808;2022-07-10T08:22:38;16.30;99.90
38726;DHT22;24474;48.906;8.808;2022-07-10T08:25:05;16.40;99.90
38726;DHT22;24474;48.906;8.808;2022-07-10T08:27:32;16.40;99.90
38726;DHT22;24474;48.906;8.808;2022-07-10T08:29:59;16.40;99.90
38726;DHT22;24474;48.906;8.808;2022-07-10T08:32:25;16.50;99.90
38726;DHT22;24474;48.906;8.808;2022-07-10T08:34:53;16.60;99.90
38726;DHT22;24474;48.906;8.808;2022-07-10T08:37:18;16.70;99.90
38726;DHT22;24474;48.906;8.808;2022-07-10T08:39:48;16.80;99.90
38726;DHT22;24474;48.906;8.808;2022-07-10T08:42:15;16.90;99.90
38726;DHT22;24474;48.906;8.808;2022-07-10T08:44:42;17.00;99.60
38726;DHT22;24474;48.906;8.808;2022-07-10T08:47:07;17.10;99.40
38726;DHT22;24474;48.906;8.808;2022-07-10T08:49:33;17.20;99.30
38726;DHT22;24474;48.906;8.808;2022-07-10T08:52:12;17.20;99.00
38726;DHT22;24474;48.906;8.808;2022-07-10T08:54:39;17.20;99.00
38726;DHT22;24474;48.906;8.808;2022-07-10T08:57:05;17.30;99.00
38726;DHT22;24474;48.906;8.808;2022-07-10T08:59:31;17.30;98.70
38726;DHT22;24474;48.906;8.808;2022-07-10T09:01:58;17.30;98.70
38726;DHT22;24474;48.906;8.808;2022-07-10T09:04:25;17.40;98.30
38726;DHT22;24474;48.906;8.808;2022-07-10T09:06:54;17.30;98.70
38726;DHT22;24474;48.906;8.808;2022-07-10T09:09:20;17.40;98.50
38726;DHT22;24474;48.906;8.808;2022-07-10T09:11:46;17.40;98.30
38726;DHT22;24474;48.906;8.808;2022-07-10T09:14:14;17.40;98.50
38726;DHT22;24474;48.906;8.808;2022-07-10T09:16:47;17.30;98.60
38726;DHT22;24474;48.906;8.808;2022-07-10T09:19:20;17.20;98.90
38726;DHT22;24474;48.906;8.808;2022-07-10T09:22:00;17.20;99.10
38726;DHT22;24474;48.906;8.808;2022-07-10T09:24:46;17.30;99.30
38726;DHT22;24474;48.906;8.808;2022-07-10T09:27:14;17.60;98.90
38726;DHT22;24474;48.906;8.808;2022-07-10T09:29:51;17.60;98.80
38726;DHT22;24474;48.906;8.808;2022-07-10T09:32:20;17.80;97.40
38726;DHT22;24474;48.906;8.808;2022-07-10T09:34:48;17.70;97.70
38726;DHT22;24474;48.906;8.808;2022-07-10T09:37:28;17.80;98.40
38726;DHT22;24474;48.906;8.808;2022-07-10T09:40:05;17.80;98.40
38726;DHT22;24474;48.906;8.808;2022-07-10T09:42:40;17.90;98.20
38726;DHT22;24474;48.906;8.808;2022-07-10T09:45:13;17.90;96.70
38726;DHT22;24474;48.906;8.808;2022-07-10T09:48:03;17.90;96.30
38726;DHT22;24474;48.906;8.808;2022-07-10T09:50:36;17.90;96.00
38726;DHT22;24474;48.906;8.808;2022-07-10T09:53:04;17.80;96.40
38726;DHT22;24474;48.906;8.808;2022-07-10T09:55:32;17.80;96.30
38726;DHT22;24474;48.906;8.808;2022-07-10T09:58:12;17.80;95.90
38726;DHT22;24474;48.906;8.808;2022-07-10T10:00:40;17.80;95.90
38726;DHT22;24474;48.906;8.808;2022-07-10T10:03:10;17.70;95.40
38726;DHT22;24474;48.906;8.808;2022-07-10T10:05:51;17.70;94.40
38726;DHT22;24474;48.906;8.808;2022-07-10T10:08:25;17.80;94.90
38726;DHT22;24474;48.906;8.808;2022-07-10T10:10:53;17.90;95.40
38726;DHT22;24474;48.906;8.808;2022-07-10T10:13:22;18.00;94.50
38726;DHT22;24474;48.906;8.808;2022-07-10T10:15:51;18.00;94.60
38726;DHT22;24474;48.906;8.808;2022-07-10T10:18:26;18.10;94.50
38726;DHT22;24474;48.906;8.808;2022-07-10T10:20:54;18.00;94.70
38726;DHT22;24474;48.906;8.808;2022-07-10T10:23:22;18.00;94.80
38726;DHT22;24474;48.906;8.808;2022-07-10T10:25:56;18.10;95.40
38726;DHT22;24474;48.906;8.808;2022-07-10T10:28:23;18.20;95.00
38726;DHT22;24474;48.906;8.808;2022-07-10T10:30:59;18.40;94.30
38726;DHT22;24474;48.906;8.808;2022-07-10T10:36:12;18.50;93.40
38726;DHT22;24474;48.906;8.808;2022-07-10T10:41:25;18.60;93.60
38726;DHT22;24474;48.906;8.808;2022-07-10T10:49:17;18.20;93.20
38726;DHT22;24474;48.906;8.808;2022-07-10T10:52:03;18.20;93.10
38726;DHT22;24474;48.906;8.808;2022-07-10T10:54:30;18.20;92.60
38726;DHT22;24474;48.906;8.808;2022-07-10T10:57:43;18.30;92.90
38726;DHT22;24474;48.906;8.808;2022-07-10T11:00:29;18.30;92.20
38726;DHT22;24474;48.906;8.808;2022-07-10T11:03:14;18.30;92.40
38726;DHT22;24474;48.906;8.808;2022-07-10T11:05:41;18.30;91.60
38726;DHT22;24474;48.906;8.808;2022-07-10T11:08:07;18.40;92.00
38726;DHT22;24474;48.906;8.808;2022-07-10T11:10:43;18.50;92.60
38726;DHT22;24474;48.906;8.808;2022-07-10T11:13:18;18.70;91.80
38726;DHT22;24474;48.906;8.808;2022-07-10T11:15:48;18.70;93.90
38726;DHT22;24474;48.906;8.808;2022-07-10T11:18:17;18.80;92.80
38726;DHT22;24474;48.906;8.808;2022-07-10T11:20:49;18.80;92.00
38726;DHT22;24474;48.906;8.808;2022-07-10T11:26:03;18.70;91.60
38726;DHT22;24474;48.906;8.808;2022-07-10T11:28:54;18.80;91.70
38726;DHT22;24474;48.906;8.808;2022-07-10T11:31:26;18.80;91.30
38726;DHT22;24474;48.906;8.808;2022-07-10T11:33:56;18.70;91.50
38726;DHT22;24474;48.906;8.808;2022-07-10T11:36:26;18.70;91.00
38726;DHT22;24474;48.906;8.808;2022-07-10T11:39:05;18.60;90.40
38726;DHT22;24474;48.906;8.808;2022-07-10T11:41:31;18.50;90.90
38726;DHT22;24474;48.906;8.808;2022-07-10T11:44:00;18.60;90.40
38726;DHT22;24474;48.906;8.808;2022-07-10T11:46:30;18.60;88.50
38726;DHT22;24474;48.906;8.808;2022-07-10T11:48:57;18.60;90.30
38726;DHT22;24474;48.906;8.808;2022-07-10T11:51:34;18.80;89.60
38726;DHT22;24474;48.906;8.808;2022-07-10T11:54:06;18.90;90.00
38726;DHT22;24474;48.906;8.808;2022-07-10T11:56:39;18.90;90.00
38726;DHT22;24474;48.906;8.808;2022-07-10T11:59:14;18.90;89.40
38726;DHT22;24474;48.906;8.808;2022-07-10T12:01:51;19.00;89.60
38726;DHT22;24474;48.906;8.808;2022-07-10T12:04:21;19.10;89.50
38726;DHT22;24474;48.906;8.808;2022-07-10T12:06:53;19.20;90.00
38726;DHT22;24474;48.906;8.808;2022-07-10T12:09:23;19.20;90.30
38726;DHT22;24474;48.906;8.808;2022-07-10T12:14:29;19.10;88.70
38726;DHT22;24474;48.906;8.808;2022-07-10T12:16:57;19.10;88.20
38726;DHT22;24474;48.906;8.808;2022-07-10T12:19:25;19.00;88.80
38726;DHT22;24474;48.906;8.808;2022-07-10T12:21:53;19.00;86.70
38726;DHT22;24474;48.906;8.808;2022-07-10T12:24:19;19.00;88.20
38726;DHT22;24474;48.906;8.808;2022-07-10T12:26:47;19.00;88.00
38726;DHT22;24474;48.906;8.808;2022-07-10T12:29:28;19.10;87.90
38726;DHT22;24474;48.906;8.808;2022-07-10T12:31:55;19.20;88.00
38726;DHT22;24474;48.906;8.808;2022-07-10T12:34:41;19.20;88.60
38726;DHT22;24474;48.906;8.808;2022-07-10T12:37:14;19.30;87.60
38726;DHT22;24474;48.906;8.808;2022-07-10T12:39:50;19.20;87.50
38726;DHT22;24474;48.906;8.808;2022-07-10T12:42:27;19.10;88.70
38726;DHT22;24474;48.906;8.808;2022-07-10T12:45:11;19.20;89.50
38726;DHT22;24474;48.906;8.808;2022-07-10T12:47:46;19.20;88.10
38726;DHT22;24474;48.906;8.808;2022-07-10T12:50:13;19.40;88.40
38726;DHT22;24474;48.906;8.808;2022-07-10T12:52:40;19.60;87.60
38726;DHT22;24474;48.906;8.808;2022-07-10T12:58:14;19.60;87.30
38726;DHT22;24474;48.906;8.808;2022-07-10T13:00:45;19.60;85.60
38726;DHT22;24474;48.906;8.808;2022-07-10T13:03:19;19.60;86.50
38726;DHT22;24474;48.906;8.808;2022-07-10T13:05:48;19.60;87.00
38726;DHT22;24474;48.906;8.808;2022-07-10T13:08:18;19.60;87.40
38726;DHT22;24474;48.906;8.808;2022-07-10T13:10:58;19.70;86.10
38726;DHT22;24474;48.906;8.808;2022-07-10T13:13:28;19.80;86.20
38726;DHT22;24474;48.906;8.808;2022-07-10T13:15:55;19.70;87.10
38726;DHT22;24474;48.906;8.808;2022-07-10T13:18:31;19.80;86.20
38726;DHT22;24474;48.906;8.808;2022-07-10T13:20:57;19.90;85.60
38726;DHT22;24474;48.906;8.808;2022-07-10T13:23:24;19.90;84.90
38726;DHT22;24474;48.906;8.808;2022-07-10T13:25:52;19.90;85.60
38726;DHT22;24474;48.906;8.808;2022-07-10T13:28:18;19.80;86.00
38726;DHT22;24474;48.906;8.808;2022-07-10T13:30:44;19.90;85.60
38726;DHT22;24474;48.906;8.808;2022-07-10T13:33:10;19.80;86.30
38726;DHT22;24474;48.906;8.808;2022-07-10T13:35:36;19.80;86.30
38726;DHT22;24474;48.906;8.808;2022-07-10T13:38:02;19.90;85.90
38726;DHT22;24474;48.906;8.808;2022-07-10T13:40:29;20.00;85.60
38726;DHT22;24474;48.906;8.808;2022-07-10T13:42:56;20.10;85.30
38726;DHT22;24474;48.906;8.808;2022-07-10T13:45:22;20.00;84.60
38726;DHT22;24474;48.906;8.808;2022-07-10T13:47:50;20.00;85.50
38726;DHT22;24474;48.906;8.808;2022-07-10T13:50:19;20.10;85.30
38726;DHT22;24474;48.906;8.808;2022-07-10T13:52:44;20.00;85.40
38726;DHT22;24474;48.906;8.808;2022-07-10T13:55:10;20.00;84.80
38726;DHT22;24474;48.906;8.808;2022-07-10T13:57:36;19.80;85.80
38726;DHT22;24474;48.906;8.808;2022-07-10T14:00:01;19.80;85.00
38726;DHT22;24474;48.906;8.808;2022-07-10T14:02:27;19.70;84.40
38726;DHT22;24474;48.906;8.808;2022-07-10T14:04:53;19.70;85.90
38726;DHT22;24474;48.906;8.808;2022-07-10T14:07:19;19.80;84.50
38726;DHT22;24474;48.906;8.808;2022-07-10T14:09:44;19.90;85.50
38726;DHT22;24474;48.906;8.808;2022-07-10T14:12:10;20.00;85.20
38726;DHT22;24474;48.906;8.808;2022-07-10T14:14:36;20.00;85.20
38726;DHT22;24474;48.906;8.808;2022-07-10T14:17:03;20.10;84.60
38726;DHT22;24474;48.906;8.808;2022-07-10T14:19:28;20.20;84.00
38726;DHT22;24474;48.906;8.808;2022-07-10T14:21:54;20.20;83.30
38726;DHT22;24474;48.906;8.808;2022-07-10T14:24:20;20.20;83.50
38726;DHT22;24474;48.906;8.808;2022-07-10T14:26:45;20.20;85.00
38726;DHT22;24474;48.906;8.808;2022-07-10T14:29:12;20.40;84.40
38726;DHT22;24474;48.906;8.808;2022-07-10T14:31:38;20.50;84.70
38726;DHT22;24474;48.906;8.808;2022-07-10T14:34:04;20.60;83.40
38726;DHT22;24474;48.906;8.808;2022-07-10T14:36:31;20.50;83.10
38726;DHT22;24474;48.906;8.808;2022-07-10T14:38:57;20.50;82.80
38726;DHT22;24474;48.906;8.808;2022-07-10T14:41:24;20.50;83.20
38726;DHT22;24474;48.906;8.808;2022-07-10T14:43:52;20.70;84.00
38726;DHT22;24474;48.906;8.808;2022-07-10T14:46:19;20.80;82.70
38726;DHT22;24474;48.906;8.808;2022-07-10T14:48:45;20.70;83.70
38726;DHT22;24474;48.906;8.808;2022-07-10T14:51:13;20.80;83.90
38726;DHT22;24474;48.906;8.808;2022-07-10T14:53:39;20.90;84.60
38726;DHT22;24474;48.906;8.808;2022-07-10T14:56:07;20.90;83.10
38726;DHT22;24474;48.906;8.808;2022-07-10T14:58:33;20.80;82.70
38726;DHT22;24474;48.906;8.808;2022-07-10T15:00:59;20.80;83.30
38726;DHT22;24474;48.906;8.808;2022-07-10T15:03:26;20.80;83.10
38726;DHT22;24474;48.906;8.808;2022-07-10T15:05:52;20.80;83.80
38726;DHT22;24474;48.906;8.808;2022-07-10T15:08:22;20.80;82.40
38726;DHT22;24474;48.906;8.808;2022-07-10T15:10:50;20.80;82.50
38726;DHT22;24474;48.906;8.808;2022-07-10T15:13:16;20.70;82.50
38726;DHT22;24474;48.906;8.808;2022-07-10T15:15:42;20.70;83.20
38726;DHT22;24474;48.906;8.808;2022-07-10T15:18:08;20.70;84.60
38726;DHT22;24474;48.906;8.808;2022-07-10T15:20:34;20.70;83.50
38726;DHT22;24474;48.906;8.808;2022-07-10T15:23:02;20.70;83.00
38726;DHT22;24474;48.906;8.808;2022-07-10T15:25:28;20.80;83.20
38726;DHT22;24474;48.906;8.808;2022-07-10T15:27:53;20.80;84.50
38726;DHT22;24474;48.906;8.808;2022-07-10T15:30:19;20.90;85.00
38726;DHT22;24474;48.906;8.808;2022-07-10T15:32:45;20.90;84.20
38726;DHT22;24474;48.906;8.808;2022-07-10T15:35:12;20.90;84.00
38726;DHT22;24474;48.906;8.808;2022-07-10T15:37:37;21.00;84.20
38726;DHT22;24474;48.906;8.808;2022-07-10T15:40:04;21.00;83.90
38726;DHT22;24474;48.906;8.808;2022-07-10T15:42:30;21.10;83.40
38726;DHT22;24474;48.906;8.808;2022-07-10T15:44:56;21.00;83.40
38726;DHT22;24474;48.906;8.808;2022-07-10T15:47:22;21.00;84.30
38726;DHT22;24474;48.906;8.808;2022-07-10T15:49:48;21.10;82.80
38726;DHT22;24474;48.906;8.808;2022-07-10T15:52:14;21.10;84.70
38726;DHT22;24474;48.906;8.808;2022-07-10T15:54:40;21.10;83.20